Time;durP1;ratioP1;P1;durP2;ratioP2;P2;SDS_P1;SDS_P2;PMS_P1;PMS_P2;Temp;Humidity;BMP_temperature;BMP_pressure;BME280_temperature;BME280_humidity;BME280_pressure;Samples;Min_cycle;Max_cycle;Signal;HPM_P1;HPM_P2
2022/04/20 00:02:07;;;;;;;3.97;3.57;;;4.60;53.80;;;3.25;64.69;97817.84;5039722;28;20461;-74
2022/04/20 00:04:35;;;;;;;4.20;3.50;;;4.60;54.00;;;3.22;64.47;97810.19;5021340;28;20492;-74
2022/04/20 00:07:04;;;;;;;3.83;3.47;;;4.60;54.10;;;3.19;64.68;97813.19;5017204;28;20955;-73
2022/04/20 00:09:31;;;;;;;3.70;3.40;;;4.60;54.30;;;3.17;65.12;97807.22;5015334;28;20478;-74
2022/04/20 00:11:57;;;;;;;4.37;3.97;;;4.60;54.40;;;3.20;64.84;97820.19;5015509;28;20854;-71
2022/04/20 00:14:24;;;;;;;4.33;4.03;;;4.60;54.50;;;2.74;65.01;97748.81;5009888;28;20598;-71
2022/04/20 00:16:51;;;;;;;3.70;3.40;;;4.60;54.70;;;3.10;65.51;97805.22;5032966;28;20825;-74
2022/04/20 00:19:18;;;;;;;4.33;3.70;;;4.50;55.00;;;3.07;65.47;97808.22;5026131;28;20469;-74
2022/04/20 00:21:45;;;;;;;4.00;3.17;;;4.50;55.20;;;3.04;65.66;97808.59;5019920;28;21730;-74
2022/04/20 00:24:13;;;;;;;5.83;4.10;;;4.50;55.40;;;2.96;65.86;97813.97;5019039;28;21028;-73
2022/04/20 00:26:40;;;;;;;5.10;3.90;;;4.40;55.50;;;2.93;66.08;97814.28;5016445;28;20457;-74
2022/04/20 00:29:07;;;;;;;4.50;4.10;;;4.30;55.80;;;2.87;66.17;97814.97;5020324;28;20573;-74
2022/04/20 00:31:34;;;;;;;3.93;3.53;;;4.30;56.00;;;2.77;66.79;97808.00;5020231;28;20530;-74
2022/04/20 00:34:01;;;;;;;4.10;3.70;;;4.20;56.60;;;2.74;67.07;97808.34;5025850;28;20584;-75
2022/04/20 00:36:29;;;;;;;4.37;3.97;;;4.20;56.70;;;2.74;67.02;97812.84;5027985;28;20496;-72
2022/04/20 00:38:56;;;;;;;5.37;3.90;;;4.20;56.90;;;2.71;67.06;97814.00;5023092;28;21985;-77
2022/04/20 00:41:24;;;;;;;3.93;3.63;;;4.20;57.20;;;2.66;67.36;97814.53;5025315;28;20471;-75
2022/04/20 00:43:51;;;;;;;4.57;4.17;;;4.10;57.40;;;2.66;67.69;97808.38;5022615;28;20457;-76
2022/04/20 00:46:20;;;;;;;4.37;3.67;;;4.10;57.70;;;2.57;67.76;97810.19;5016880;28;20457;-74
2022/04/20 00:48:48;;;;;;;4.70;4.30;;;4.00;58.00;;;2.34;68.51;97804.72;5030931;28;20467;-73
2022/04/20 00:51:15;;;;;;;3.70;3.27;;;3.90;58.30;;;2.29;69.12;97820.41;5020020;28;20635;-77
2022/04/20 00:53:42;;;;;;;5.40;4.03;;;3.70;59.00;;;2.23;69.36;97820.06;5024698;28;20444;-75
2022/04/20 00:56:09;;;;;;;4.90;3.93;;;3.60;59.90;;;2.07;69.62;97818.22;5024962;28;20459;-74
2022/04/20 00:58:41;;;;;;;5.10;4.60;;;3.50;60.30;;;2.03;70.11;97816.91;5021867;28;20532;-74
2022/04/20 01:01:09;;;;;;;4.43;4.03;;;3.40;61.30;;;2.00;70.08;97819.06;5036839;28;20482;-77
2022/04/20 01:03:36;;;;;;;5.47;4.97;;;3.40;61.70;;;1.83;70.68;97819.03;5026274;28;20542;-76
2022/04/20 01:06:03;;;;;;;6.03;4.53;;;3.30;62.10;;;1.79;70.68;97817.72;5043485;28;20485;-77
2022/04/20 01:08:30;;;;;;;5.60;4.60;;;3.20;63.00;;;1.80;71.00;97819.38;5026906;28;20565;-76
2022/04/20 01:10:57;;;;;;;6.77;4.60;;;3.20;63.80;;;1.74;71.37;97812.88;5028244;28;20457;-72
2022/04/20 01:13:25;;;;;;;5.33;4.83;;;3.20;64.60;;;1.72;71.57;97811.34;5019544;28;20976;-75
2022/04/20 01:15:53;;;;;;;6.47;5.07;;;3.10;65.30;;;1.31;71.79;97765.03;5022457;28;20982;-74
2022/04/20 01:18:20;;;;;;;4.87;4.47;;;3.10;65.80;;;1.53;72.85;97810.66;5018596;28;20467;-76
2022/04/20 01:20:49;;;;;;;5.23;4.73;;;3.00;66.60;;;1.53;72.18;97818.66;5026001;28;20558;-75
2022/04/20 01:23:16;;;;;;;4.23;3.83;;;3.00;67.00;;;1.62;72.37;97814.16;5026022;28;20470;-76
2022/04/20 01:25:43;;;;;;;5.20;4.70;;;3.00;67.30;;;1.63;72.15;97819.34;5025419;28;20839;-74
2022/04/20 01:28:11;;;;;;;7.77;5.20;;;3.00;67.50;;;1.58;72.33;97820.81;5035900;28;20527;-74
2022/04/20 01:30:38;;;;;;;8.20;4.60;;;3.10;67.70;;;1.46;72.19;97804.31;5041877;28;20457;-73
2022/04/20 01:33:05;;;;;;;5.90;5.03;;;3.00;67.70;;;1.51;72.77;97820.66;5034861;28;20457;-71
2022/04/20 01:35:32;;;;;;;6.27;5.30;;;3.00;68.00;;;1.39;72.89;97823.59;5051724;28;20464;-74
2022/04/20 01:38:00;;;;;;;4.90;4.50;;;2.90;68.20;;;1.39;73.56;97822.78;5039809;28;22344;-72
2022/04/20 01:40:27;;;;;;;10.10;4.37;;;2.90;68.90;;;1.36;73.40;97823.94;5039507;28;21039;-75
2022/04/20 01:42:54;;;;;;;6.40;4.63;;;2.80;69.00;;;1.41;73.31;97820.78;5036026;28;20443;-75
2022/04/20 01:45:21;;;;;;;8.70;5.20;;;2.80;69.20;;;1.26;73.58;97823.22;5037014;28;20456;-73
2022/04/20 01:47:48;;;;;;;5.37;4.90;;;2.80;69.30;;;1.24;73.76;97822.53;5040464;28;20525;-74
2022/04/20 01:50:15;;;;;;;4.33;3.93;;;2.70;69.50;;;1.18;73.70;97821.34;5022386;28;20457;-73
2022/04/20 01:52:42;;;;;;;5.50;5.00;;;2.70;69.80;;;1.12;73.58;97822.81;5018547;28;20465;-73
2022/04/20 01:55:11;;;;;;;4.70;4.30;;;2.60;69.90;;;1.17;73.57;97819.69;5019895;28;20480;-74
2022/04/20 01:57:38;;;;;;;5.47;4.97;;;2.60;70.10;;;1.04;74.36;97814.81;5023207;28;20471;-73
2022/04/20 02:00:07;;;;;;;7.70;4.90;;;2.60;70.40;;;0.75;74.06;97768.13;5022276;28;20490;-73
2022/04/20 02:02:36;;;;;;;6.50;5.30;;;2.60;70.80;;;1.04;74.21;97820.16;5024902;28;20550;-72
2022/04/20 02:05:04;;;;;;;8.30;4.90;;;2.60;70.60;;;0.98;74.24;97815.44;5034702;28;20459;-74
2022/04/20 02:07:32;;;;;;;7.93;5.37;;;2.50;70.80;;;0.94;74.33;97812.28;5019706;28;23006;-74
2022/04/20 02:09:59;;;;;;;5.30;4.80;;;2.50;71.00;;;0.95;74.44;97815.75;5025210;28;20466;-72
2022/04/20 02:12:28;;;;;;;6.03;5.37;;;2.50;71.10;;;0.94;74.63;97814.09;5020576;28;20504;-73
2022/04/20 02:14:54;;;;;;;5.27;4.83;;;2.50;71.30;;;0.91;75.11;97809.94;5016685;28;20450;-73
2022/04/20 02:17:21;;;;;;;5.43;4.93;;;2.40;71.40;;;0.94;74.46;97811.44;5029313;28;20458;-73
2022/04/20 02:19:49;;;;;;;6.10;4.60;;;2.50;71.40;;;0.98;74.34;97815.44;5024957;28;20475;-73
2022/04/20 02:22:16;;;;;;;6.10;4.57;;;2.50;71.30;;;0.99;74.24;97817.13;5027811;28;20447;-73
2022/04/20 02:24:44;;;;;;;5.17;4.43;;;2.50;71.20;;;0.99;74.51;97817.13;5032201;28;20956;-73
2022/04/20 02:27:11;;;;;;;5.80;5.07;;;2.50;71.10;;;1.02;74.19;97818.63;5025293;28;20493;-73
2022/04/20 02:29:39;;;;;;;10.90;5.87;;;2.50;71.00;;;0.98;74.17;97820.75;5020881;28;20486;-72
2022/04/20 02:32:09;;;;;;;9.90;4.90;;;2.50;71.00;;;0.82;74.81;97817.03;5022548;28;20577;-71
2022/04/20 02:34:37;;;;;;;4.83;4.43;;;2.40;71.20;;;0.95;74.47;97810.44;5030326;28;21162;-73
2022/04/20 02:37:05;;;;;;;5.40;4.90;;;2.40;71.40;;;1.01;74.03;97820.47;5024692;28;20975;-74
2022/04/20 02:39:35;;;;;;;7.43;5.20;;;2.50;71.20;;;0.99;73.81;97812.63;5019812;28;20473;-74
2022/04/20 02:42:03;;;;;;;5.83;4.77;;;2.50;70.90;;;0.87;73.86;97807.75;5020030;28;20452;-74
2022/04/20 02:44:30;;;;;;;5.93;4.67;;;2.40;70.70;;;1.05;73.30;97819.16;5014165;28;22169;-74
2022/04/20 02:46:58;;;;;;;4.80;4.40;;;2.50;70.60;;;1.10;73.07;97814.16;5017426;28;20459;-72
2022/04/20 02:49:25;;;;;;;7.50;4.70;;;2.60;70.20;;;1.10;72.96;97816.84;5016793;28;20487;-72
2022/04/20 02:51:52;;;;;;;6.27;4.70;;;2.60;69.90;;;1.06;72.58;97810.16;5020996;28;20485;-73
2022/04/20 02:54:19;;;;;;;6.07;4.30;;;2.60;69.60;;;1.16;72.97;97819.88;5026543;28;20480;-74
2022/04/20 02:56:46;;;;;;;4.57;4.17;;;2.60;69.40;;;1.10;72.80;97819.50;5021190;28;20478;-74
2022/04/20 02:59:13;;;;;;;5.10;4.60;;;2.60;69.30;;;1.13;72.38;97819.16;5021459;28;21240;-74
2022/04/20 03:01:40;;;;;;;8.30;4.53;;;2.60;69.10;;;1.13;72.31;97811.19;5022036;28;20473;-73
2022/04/20 03:04:08;;;;;;;6.80;5.23;;;2.60;68.80;;;1.17;71.89;97817.03;5022636;28;20497;-74
2022/04/20 03:06:35;;;;;;;5.30;4.80;;;2.60;68.60;;;1.20;72.08;97815.88;5033558;28;20461;-74
2022/04/20 03:09:03;;;;;;;6.13;3.90;;;2.70;68.50;;;1.22;71.87;97820.06;5021175;28;20528;-73
2022/04/20 03:11:31;;;;;;;4.30;4.00;;;2.70;68.40;;;1.13;71.69;97819.16;5022541;28;20849;-74
2022/04/20 03:14:01;;;;;;;8.20;4.10;;;2.70;68.30;;;1.13;72.35;97819.16;5024714;28;20466;-73
2022/04/20 03:16:28;;;;;;;6.00;4.97;;;2.60;68.40;;;1.18;72.06;97825.84;5028147;28;20472;-73
2022/04/20 03:18:55;;;;;;;5.20;4.47;;;2.60;68.50;;;1.07;72.15;97809.19;5026155;28;21029;-74
2022/04/20 03:21:24;;;;;;;7.90;5.10;;;2.60;68.60;;;1.05;72.17;97810.31;5024539;28;20570;-74
2022/04/20 03:23:51;;;;;;;4.67;4.20;;;2.50;68.80;;;1.05;72.06;97810.31;5014297;28;20480;-73
2022/04/20 03:26:18;;;;;;;6.97;4.80;;;2.50;68.70;;;0.95;72.51;97821.94;5018511;28;20813;-73
2022/04/20 03:28:45;;;;;;;5.93;5.33;;;2.50;68.90;;;1.02;72.21;97816.81;5020677;28;20456;-73
2022/04/20 03:31:12;;;;;;;4.87;4.37;;;2.40;68.80;;;1.03;72.34;97818.47;5024143;28;20518;-74
2022/04/20 03:33:38;;;;;;;5.43;4.43;;;2.50;68.80;;;1.06;72.12;97820.81;5024851;28;20564;-73
2022/04/20 03:36:07;;;;;;;5.63;4.80;;;2.50;68.60;;;0.78;71.83;97773.13;5014479;28;22477;-73
2022/04/20 03:38:36;;;;;;;9.23;4.90;;;2.60;68.50;;;1.06;71.56;97812.84;5032151;28;20902;-73
2022/04/20 03:41:03;;;;;;;5.30;4.57;;;2.50;68.40;;;0.99;71.89;97817.13;5041479;28;21278;-74
2022/04/20 03:43:30;;;;;;;5.10;4.60;;;2.50;68.50;;;1.05;72.03;97816.50;5023417;28;20469;-74
2022/04/20 03:45:57;;;;;;;5.10;4.60;;;2.50;68.60;;;0.99;72.19;97817.94;5020697;28;20470;-73
2022/04/20 03:48:24;;;;;;;5.30;4.37;;;2.50;68.50;;;0.66;72.09;97774.38;5030246;28;20467;-74
2022/04/20 03:50:51;;;;;;;6.67;4.43;;;2.50;68.60;;;0.89;72.84;97821.72;5033823;28;20495;-73
2022/04/20 03:53:18;;;;;;;5.33;4.53;;;2.40;68.90;;;0.79;73.51;97825.31;5033273;28;20547;-73
2022/04/20 03:55:47;;;;;;;6.20;4.90;;;2.30;69.70;;;0.68;73.87;97826.44;5029617;28;20464;-74
2022/04/20 03:58:14;;;;;;;5.43;4.93;;;2.20;70.00;;;0.48;74.29;97836.44;5033112;28;20545;-74
2022/04/20 04:00:41;;;;;;;8.00;5.40;;;2.10;70.60;;;0.41;75.01;97838.06;5019482;28;20566;-74
2022/04/20 04:03:08;;;;;;;6.93;5.07;;;2.00;71.50;;;0.23;75.99;97838.94;5032224;28;20463;-75
2022/04/20 04:05:35;;;;;;;6.03;5.43;;;1.80;72.30;;;0.16;76.31;97829.88;5020176;28;20546;-73
2022/04/20 04:08:01;;;;;;;8.10;5.70;;;1.70;72.90;;;-0.02;76.86;97844.03;5019651;28;20531;-71
2022/04/20 04:10:29;;;;;;;7.77;5.40;;;1.60;73.40;;;-0.11;77.61;97852.06;5024754;28;20576;-73
2022/04/20 04:12:57;;;;;;;5.60;5.10;;;1.50;74.00;;;-0.04;77.99;97847.81;5038782;28;20554;-73
2022/04/20 04:15:24;;;;;;;8.67;5.77;;;1.50;74.60;;;-0.01;77.24;97845.69;5023723;28;20535;-72
2022/04/20 04:17:54;;;;;;;5.07;4.30;;;1.50;74.60;;;-0.44;78.02;97786.19;5019136;28;21006;-74
2022/04/20 04:20:21;;;;;;;6.40;5.53;;;1.50;74.80;;;-0.05;77.56;97852.31;5018684;28;20478;-74
2022/04/20 04:22:49;;;;;;;11.00;5.90;;;1.50;74.90;;;-0.04;77.91;97848.66;5019440;28;20900;-72
2022/04/20 04:25:16;;;;;;;6.37;5.77;;;1.50;74.90;;;-0.08;77.73;97830.50;5022831;28;20488;-73
2022/04/20 04:27:43;;;;;;;6.53;5.20;;;1.50;75.00;;;-0.04;77.96;97843.34;5019435;28;20498;-73
2022/04/20 04:30:13;;;;;;;8.43;5.87;;;1.50;75.10;;;0.04;77.28;97847.91;5017804;28;20466;-74
2022/04/20 04:32:40;;;;;;;6.07;5.33;;;1.60;75.00;;;0.30;77.07;97843.63;5032160;28;20445;-74
2022/04/20 04:35:09;;;;;;;5.80;5.27;;;1.80;74.40;;;0.62;75.38;97836.88;5014101;28;20452;-74
2022/04/20 04:37:36;;;;;;;9.23;5.23;;;2.10;73.30;;;1.02;73.77;97848.75;5021646;28;20483;-73
2022/04/20 04:40:04;;;;;;;5.47;4.97;;;2.50;71.50;;;1.29;72.55;97848.69;5018638;28;20465;-74
2022/04/20 04:42:31;;;;;;;6.63;4.57;;;2.90;70.00;;;1.61;71.64;97844.47;5032698;28;20591;-74
2022/04/20 04:48:36;;;;;;;5.83;5.20;;;3.10;69.10;;;2.09;70.15;97834.06;5013723;28;20539;-75
2022/04/20 04:50:31;;;;;;;5.30;4.77;;;4.40;64.60;;;2.96;66.20;97848.66;5020896;28;20463;-75
2022/04/20 04:52:58;;;;;;;6.80;5.07;;;4.80;62.70;;;2.63;66.39;97846.03;5012976;28;20475;-71
2022/04/20 04:55:25;;;;;;;5.20;4.70;;;4.60;61.60;;;2.77;66.29;97842.69;5013107;28;20544;-73
2022/04/20 04:57:51;;;;;;;5.03;4.53;;;4.60;61.80;;;2.86;66.05;97840.00;5008583;28;20475;-73
2022/04/20 05:00:18;;;;;;;4.63;4.13;;;4.80;61.40;;;3.13;65.45;97845.94;5011733;28;21022;-73
2022/04/20 05:02:47;;;;;;;7.20;5.37;;;4.90;61.10;;;3.20;65.56;97846.91;5014924;28;20453;-74
2022/04/20 05:05:14;;;;;;;5.40;4.43;;;5.00;60.70;;;3.69;63.05;97840.50;5019682;28;20531;-74
2022/04/20 05:07:41;;;;;;;4.67;4.27;;;5.60;59.50;;;3.72;62.86;97831.31;5020086;28;20485;-72
2022/04/20 05:10:09;;;;;;;5.67;5.17;;;5.70;58.60;;;4.52;61.00;97846.09;5020542;28;20462;-73
2022/04/20 05:12:36;;;;;;;5.63;4.30;;;6.20;58.40;;;5.41;58.53;97832.13;5025156;28;20543;-73
2022/04/20 05:15:04;;;;;;;6.43;5.10;;;7.10;56.20;;;5.52;57.53;97834.31;5014369;28;20461;-72
2022/04/20 05:17:31;;;;;;;7.03;5.13;;;7.60;54.80;;;5.90;56.47;97836.81;5017847;28;20461;-72
2022/04/20 05:19:59;;;;;;;7.60;4.90;;;7.80;53.80;;;5.57;56.57;97839.97;5025200;28;20473;-74
2022/04/20 05:22:27;;;;;;;7.47;4.60;;;7.80;52.90;;;6.07;55.65;97839.28;5029401;28;20953;-82
2022/04/20 05:24:54;;;;;;;6.20;4.53;;;7.80;52.70;;;5.35;56.58;97829.16;5023594;28;20467;-76
2022/04/20 05:27:21;;;;;;;6.53;5.20;;;7.60;52.30;;;5.37;57.23;97837.84;5027288;28;20793;-80
2022/04/20 05:29:48;;;;;;;6.80;5.20;;;7.40;53.00;;;5.26;57.53;97838.34;5034023;28;20502;-81
2022/04/20 05:32:15;;;;;;;7.23;5.97;;;7.50;52.50;;;5.61;56.88;97843.91;5033410;28;20448;-82
2022/04/20 05:34:42;;;;;;;8.23;4.87;;;7.70;52.60;;;5.83;56.40;97841.28;5027121;28;20860;-80
2022/04/20 05:42:40;;;;;;;5.73;4.90;;;7.60;51.10;;;4.39;59.95;97845.88;5041648;28;20572;-72
2022/04/20 05:45:09;;;;;;;5.93;5.43;;;6.70;52.60;;;4.31;60.64;97843.25;5024866;28;20557;-73
2022/04/20 05:47:38;;;;;;;5.47;4.97;;;6.50;53.20;;;3.72;62.20;97839.34;5033450;28;20457;-72
2022/04/20 05:50:06;;;;;;;5.97;5.23;;;5.90;53.90;;;3.35;63.76;97839.03;5040021;28;20448;-72
2022/04/20 05:52:35;;;;;;;6.13;5.60;;;5.30;55.40;;;2.82;65.45;97839.50;5031817;28;20449;-72
2022/04/20 05:55:02;;;;;;;7.20;5.63;;;4.70;56.60;;;2.52;66.48;97839.22;5030961;28;20481;-72
2022/04/20 05:57:30;;;;;;;5.70;5.10;;;4.30;58.00;;;2.61;66.69;97838.22;5034810;28;20467;-72
2022/04/20 05:59:57;;;;;;;7.40;6.07;;;4.20;59.40;;;2.71;66.63;97843.38;5029086;28;20962;-71
2022/04/20 06:02:24;;;;;;;5.83;5.23;;;4.20;59.70;;;2.74;66.96;97848.34;5025012;28;20502;-71
2022/04/20 06:04:51;;;;;;;6.70;5.73;;;4.20;60.10;;;2.80;66.71;97845.00;5026436;28;20821;-72
2022/04/20 06:07:18;;;;;;;6.40;5.80;;;4.20;60.40;;;2.88;66.60;97843.31;5036029;28;20455;-74
2022/04/20 06:09:47;;;;;;;7.67;6.13;;;4.30;60.60;;;3.04;66.09;97843.28;5028334;28;20931;-73
2022/04/20 06:12:14;;;;;;;5.63;5.00;;;4.40;60.60;;;3.22;65.81;97839.56;5029987;28;20532;-73
2022/04/20 06:14:41;;;;;;;8.73;5.50;;;4.60;60.40;;;3.36;65.28;97841.50;5025937;28;20674;-74
2022/04/20 06:17:09;;;;;;;7.07;6.37;;;4.70;60.30;;;3.46;65.57;97840.47;5024312;28;20515;-72
2022/04/20 06:19:36;;;;;;;9.30;5.90;;;4.90;60.60;;;3.64;64.86;97838.38;5020005;28;20574;-79
2022/04/20 06:22:03;;;;;;;7.97;5.47;;;5.00;60.10;;;3.77;64.07;97831.63;5027750;28;20517;-74
2022/04/20 06:24:31;;;;;;;7.53;5.23;;;5.20;59.80;;;3.69;64.55;97833.31;5026026;28;20532;-74
2022/04/20 06:26:59;;;;;;;5.93;5.23;;;5.10;59.60;;;3.61;64.43;97830.72;5027262;28;20846;-74
2022/04/20 06:29:26;;;;;;;10.70;6.00;;;5.10;59.50;;;3.77;64.22;97831.63;5029001;28;20477;-74
2022/04/20 06:31:53;;;;;;;6.60;5.93;;;5.20;59.70;;;3.71;65.21;97778.84;5029786;28;20930;-75
2022/04/20 06:34:21;;;;;;;6.73;5.50;;;5.30;61.10;;;4.24;63.67;97835.97;5024170;28;21316;-75
2022/04/20 06:36:48;;;;;;;10.53;5.03;;;5.50;59.70;;;4.33;62.96;97835.91;5027302;28;20793;-74
2022/04/20 06:39:15;;;;;;;6.80;5.10;;;5.60;58.90;;;4.33;62.88;97841.25;5025953;28;20556;-75
2022/04/20 06:41:44;;;;;;;6.93;6.33;;;5.70;58.80;;;4.24;62.64;97806.53;5023022;28;20469;-76
2022/04/20 06:44:13;;;;;;;9.80;6.30;;;5.80;58.80;;;4.67;61.73;97831.94;5022641;28;20565;-75
2022/04/20 06:46:40;;;;;;;5.60;5.10;;;6.00;58.70;;;4.97;62.78;97829.28;5028200;28;20466;-74
2022/04/20 06:49:07;;;;;;;6.00;4.90;;;6.10;59.50;;;4.97;60.80;97827.41;5025307;28;20870;-73
2022/04/20 06:59:47;;;;;;;5.17;4.67;;;6.70;56.90;;;5.54;58.72;97821.59;5036082;28;20481;-83
2022/04/20 07:02:14;;;;;;;7.10;4.23;;;6.80;56.90;;;5.50;58.19;97807.72;5029311;28;20466;-80
2022/04/20 07:04:42;;;;;;;5.90;5.30;;;6.90;56.10;;;5.62;57.54;97824.13;5028592;28;20968;-79
2022/04/20 07:07:09;;;;;;;4.80;4.30;;;6.90;55.30;;;5.73;56.96;97822.00;5027200;28;20450;-79
2022/04/20 07:09:36;;;;;;;4.87;4.47;;;7.00;55.10;;;5.70;57.28;97817.84;5045769;28;20459;-84
2022/04/20 07:12:03;;;;;;;5.40;4.87;;;7.00;55.00;;;5.84;56.69;97816.16;5031355;28;20541;-79
2022/04/20 07:14:30;;;;;;;5.47;4.90;;;7.10;54.60;;;6.03;55.77;97814.69;5029339;28;20455;-81
2022/04/20 07:17:00;;;;;;;5.13;4.70;;;7.30;54.40;;;5.89;56.27;97818.22;5029375;28;20500;-82
2022/04/20 07:19:28;;;;;;;5.17;4.67;;;7.20;53.60;;;5.99;55.57;97812.56;5026384;28;20490;-80
2022/04/20 07:21:55;;;;;;;5.50;4.17;;;7.30;53.50;;;6.19;54.02;97802.06;5026383;28;20478;-80
2022/04/20 07:24:22;;;;;;;5.83;5.23;;;7.40;53.00;;;6.35;54.09;97817.06;5024705;28;20510;-80
2022/04/20 07:26:49;;;;;;;4.10;3.70;;;7.60;52.60;;;6.41;53.57;97810.91;5027666;28;20485;-80
2022/04/20 07:29:16;;;;;;;4.27;3.87;;;7.70;52.60;;;6.61;53.64;97815.63;5022212;28;20446;-71
2022/04/20 07:31:43;;;;;;;4.60;3.77;;;7.80;52.40;;;6.60;53.09;97816.66;5039009;28;20450;-75
2022/04/20 07:34:11;;;;;;;4.10;3.70;;;7.90;51.40;;;6.70;53.25;97809.06;5019095;28;20453;-73
2022/04/20 07:36:39;;;;;;;4.47;4.07;;;7.90;51.50;;;6.79;52.68;97813.28;5022026;28;20481;-73
2022/04/20 07:39:06;;;;;;;3.73;3.43;;;8.00;51.20;;;6.71;51.73;97793.81;5019713;28;20972;-74
2022/04/20 07:41:33;;;;;;;3.50;3.20;;;8.10;50.70;;;6.96;51.56;97812.97;5041323;28;20562;-77
2022/04/20 07:44:00;;;;;;;4.03;3.63;;;8.20;50.80;;;6.96;51.67;97807.59;5022804;28;20524;-81
2022/04/20 07:46:27;;;;;;;4.07;3.67;;;8.20;50.50;;;7.16;50.90;97806.88;5021432;28;20563;-88
2022/04/20 07:48:54;;;;;;;4.27;3.87;;;8.40;50.20;;;7.31;50.45;97799.50;5026894;28;20780;-83
2022/04/20 07:51:23;;;;;;;5.80;3.97;;;8.50;49.80;;;7.30;49.52;97803.22;5036895;28;20482;-80
2022/04/20 07:53:49;;;;;;;6.00;4.63;;;8.60;49.00;;;7.08;49.96;97797.97;5025158;28;20454;-84
2022/04/20 07:56:16;;;;;;;4.20;3.80;;;8.40;49.20;;;6.93;50.40;97802.63;5025181;28;20472;-81
2022/04/20 07:58:43;;;;;;;3.90;3.60;;;8.30;48.90;;;7.19;48.48;97803.78;5023387;28;20482;-75
2022/04/20 08:01:13;;;;;;;3.27;3.00;;;8.40;48.20;;;7.44;48.25;97803.28;5015738;28;20478;-76
2022/04/20 08:03:40;;;;;;;4.07;3.67;;;8.60;47.90;;;7.55;46.06;97802.72;5022282;28;20524;-76
2022/04/20 08:06:07;;;;;;;3.90;3.60;;;8.70;46.20;;;7.61;46.22;97804.59;5022973;28;20912;-77
2022/04/20 08:08:35;;;;;;;3.97;3.50;;;8.80;46.20;;;7.65;46.04;97813.09;5020344;28;20534;-76
2022/04/20 08:11:02;;;;;;;3.37;3.03;;;8.90;45.90;;;7.65;45.82;97800.47;5019402;28;20454;-72
2022/04/20 08:16:13;;;;;;;4.60;3.43;;;9.10;46.00;;;8.19;44.46;97794.41;5020681;28;20443;-73
2022/04/20 08:18:40;;;;;;;3.50;3.30;;;9.30;45.20;;;8.25;43.42;97788.19;5023472;28;20920;-74
2022/04/20 08:21:07;;;;;;;4.03;3.73;;;9.50;44.40;;;8.29;42.96;97794.78;5022705;28;20471;-78
2022/04/20 08:23:36;;;;;;;4.10;3.73;;;9.50;44.00;;;8.30;42.89;97798.31;5031536;28;20472;-73
2022/04/20 08:26:02;;;;;;;4.27;3.77;;;9.50;43.50;;;8.38;43.56;97791.91;5033565;28;20449;-74
2022/04/20 08:28:30;;;;;;;4.30;3.90;;;9.60;43.80;;;8.19;42.04;97789.00;5023559;28;20524;-74
2022/04/20 08:30:57;;;;;;;5.00;4.50;;;9.50;42.40;;;8.33;42.37;97790.66;5026481;28;20473;-75
2022/04/20 08:33:24;;;;;;;5.53;3.90;;;9.50;42.70;;;8.43;41.47;97784.88;5019499;28;20843;-74
2022/04/20 08:35:52;;;;;;;3.37;3.07;;;9.60;42.40;;;8.60;40.89;97789.88;5020048;28;20458;-76
2022/04/20 08:38:19;;;;;;;4.07;3.77;;;9.80;42.30;;;8.78;41.40;97775.75;5016370;28;20459;-76
2022/04/20 08:40:48;;;;;;;4.33;3.70;;;9.90;42.20;;;8.81;39.82;97779.88;5019068;28;20456;-76
2022/04/20 08:43:15;;;;;;;4.57;3.80;;;9.90;41.30;;;8.76;39.44;97773.28;5019285;28;20533;-75
2022/04/20 08:45:43;;;;;;;3.50;3.20;;;10.00;40.00;;;8.53;39.85;97724.41;5019794;28;20461;-76
2022/04/20 08:48:10;;;;;;;3.60;3.30;;;10.00;40.20;;;8.88;39.70;97780.72;5019169;28;20450;-75
2022/04/20 08:50:37;;;;;;;3.50;3.20;;;10.10;40.20;;;8.71;38.52;97734.53;5016214;28;20644;-74
2022/04/20 08:53:05;;;;;;;4.03;3.73;;;10.20;39.40;;;8.76;37.27;97772.44;5039012;28;20468;-72
2022/04/20 08:55:33;;;;;;;4.00;3.10;;;10.10;38.00;;;8.87;36.96;97770.94;5020705;28;20466;-74
2022/04/20 08:58:05;;;;;;;3.80;3.50;;;10.10;37.70;;;8.78;36.91;97757.72;5022824;28;20458;-74
2022/04/20 09:00:32;;;;;;;4.80;3.30;;;10.10;37.40;;;8.78;37.09;97754.19;5023677;28;21058;-85
2022/04/20 09:03:03;;;;;;;3.40;3.10;;;10.00;37.70;;;9.08;37.25;97753.69;5023834;28;20498;-81
2022/04/20 09:05:32;;;;;;;3.90;3.27;;;10.20;38.30;;;9.23;36.89;97758.84;5027744;28;20493;-75
2022/04/20 09:08:09;;;;;;;4.00;3.70;;;10.30;37.90;;;8.89;36.82;97761.63;5023767;28;21007;-78
2022/04/20 09:10:37;;;;;;;3.53;3.23;;;10.30;37.30;;;9.17;36.91;97767.75;5030511;28;20469;-74
2022/04/20 09:13:11;;;;;;;2.70;2.50;;;10.30;37.50;;;9.13;34.72;97756.59;5035609;28;20532;-85
2022/04/20 09:15:40;;;;;;;3.00;2.70;;;10.40;36.00;;;9.31;34.01;97758.59;5026875;28;20443;-84
2022/04/20 09:18:09;;;;;;;2.97;2.77;;;10.50;35.30;;;9.13;34.19;97736.91;5031163;28;20498;-82
2022/04/20 09:20:38;;;;;;;3.50;3.10;;;10.50;35.10;;;9.31;34.55;97766.69;5054497;28;20454;-84
2022/04/20 09:23:08;;;;;;;3.30;2.97;;;10.50;35.50;;;9.31;33.80;97747.81;5042651;28;20493;-84
2022/04/20 09:25:37;;;;;;;5.30;3.17;;;10.60;35.20;;;9.56;33.24;97749.78;5046261;28;20458;-80
2022/04/20 09:28:08;;;;;;;3.33;3.00;;;10.60;35.00;;;9.78;32.75;97749.44;5025276;28;20457;-87
2022/04/20 09:30:36;;;;;;;3.40;2.70;;;10.80;34.90;;;9.71;32.78;97727.09;5047331;28;20561;-85
2022/04/20 09:33:07;;;;;;;3.30;3.00;;;10.90;34.40;;;9.89;32.42;97740.66;5050024;28;20454;-86
2022/04/20 09:35:42;;;;;;;3.20;2.90;;;11.10;34.80;;;9.86;33.48;97722.22;5022515;28;20528;-80
2022/04/20 09:38:10;;;;;;;3.20;3.00;;;11.10;34.80;;;10.16;33.19;97731.53;5039077;28;20474;-81
2022/04/20 09:40:39;;;;;;;3.20;2.33;;;11.30;34.90;;;9.77;30.97;97691.97;5037929;28;20537;-82
2022/04/20 09:43:09;;;;;;;7.00;2.70;;;11.30;33.40;;;9.92;31.15;97698.94;5051555;28;20969;-84
2022/04/20 09:45:37;;;;;;;3.63;3.30;;;11.30;33.20;;;10.20;31.87;97727.38;5020795;28;20454;-81
2022/04/20 09:51:11;;;;;;;2.73;2.40;;;11.40;32.90;;;10.37;28.93;97716.00;5050098;28;20465;-83
2022/04/20 09:53:38;;;;;;;2.80;2.60;;;11.60;31.40;;;10.19;28.06;97725.72;5033391;28;20479;-82
2022/04/20 09:56:20;;;;;;;3.77;2.60;;;11.40;30.50;;;9.92;29.09;97732.13;5033799;28;20461;-82
2022/04/20 09:58:58;;;;;;;3.03;2.83;;;11.10;31.30;;;9.92;30.53;97718.63;5030711;28;20536;-81
2022/04/20 10:01:30;;;;;;;2.77;2.57;;;11.20;32.30;;;10.01;31.06;97729.16;5028892;28;20514;-80
2022/04/20 10:03:57;;;;;;;3.33;3.10;;;11.10;32.50;;;10.24;29.78;97701.56;5028164;28;20447;-82
2022/04/20 10:06:24;;;;;;;3.10;2.90;;;11.40;32.00;;;10.49;29.78;97723.19;5032170;28;20453;-81
2022/04/20 10:08:52;;;;;;;2.87;2.67;;;11.50;32.10;;;10.51;29.89;97719.44;5025544;28;21039;-82
2022/04/20 10:11:21;;;;;;;3.23;2.93;;;11.60;32.30;;;10.67;30.61;97726.16;5022387;28;20454;-85
2022/04/20 10:16:05;;;;;;;3.30;3.00;;;11.70;33.10;;;10.62;30.25;97729.50;5032603;28;20820;-80
2022/04/20 10:16:50;;;;;;;3.00;2.80;;;11.80;32.40;;;10.56;30.21;97719.63;5044144;28;20440;-79
2022/04/20 10:19:27;;;;;;;3.73;3.07;;;11.70;32.60;;;10.70;29.94;97693.28;5028271;28;20466;-80
2022/04/20 10:21:56;;;;;;;3.73;3.20;;;11.90;32.40;;;10.95;29.85;97709.41;5023299;28;20466;-73
2022/04/20 10:24:29;;;;;;;2.87;2.67;;;12.00;32.70;;;11.00;29.51;97703.34;5020468;28;20579;-76
2022/04/20 10:26:59;;;;;;;3.80;3.20;;;12.10;32.30;;;11.09;30.31;97701.16;5040297;28;20558;-75
2022/04/20 10:29:36;;;;;;;4.00;3.70;;;12.10;32.60;;;10.64;31.41;97692.28;5024204;28;20463;-76
2022/04/20 10:32:10;;;;;;;3.70;3.40;;;12.00;33.40;;;11.09;31.28;97687.63;5028874;28;20838;-76
2022/04/20 10:34:40;;;;;;;3.37;3.17;;;12.10;33.60;;;10.82;31.05;97693.34;5025243;28;20639;-74
2022/04/20 10:37:11;;;;;;;4.00;3.40;;;12.00;33.00;;;10.86;31.11;97672.94;5035498;28;20451;-74
2022/04/20 10:39:41;;;;;;;3.13;2.83;;;12.00;32.90;;;11.25;29.41;97687.00;5023355;28;20569;-72
2022/04/20 10:42:22;;;;;;;3.53;3.20;;;12.20;32.50;;;11.23;30.20;97683.72;5023576;28;21257;-74
2022/04/20 10:44:57;;;;;;;3.77;3.47;;;12.30;32.90;;;11.33;31.35;97678.59;5028760;28;20486;-72
2022/04/20 10:47:27;;;;;;;3.63;3.33;;;12.40;33.60;;;11.42;31.66;97673.69;5025967;28;20436;-73
2022/04/20 10:50:14;;;;;;;3.80;3.60;;;12.50;33.80;;;11.45;30.87;97672.41;5026092;28;20453;-74
2022/04/20 10:52:44;;;;;;;3.57;3.23;;;12.60;33.50;;;11.33;31.28;97670.47;5024442;28;20552;-74
2022/04/20 10:55:12;;;;;;;4.20;3.80;;;12.50;33.60;;;11.29;31.15;97628.69;5020155;28;20461;-73
2022/04/20 10:57:40;;;;;;;8.70;3.60;;;12.60;33.70;;;11.59;30.97;97667.63;5017168;28;21227;-74